createdAt,value
2022-10-17T00:00:55.335Z,91.00
2022-10-17T00:01:55.352Z,91.20
2022-10-17T00:02:55.295Z,91.31
2022-10-17T00:03:55.283Z,91.11
2022-10-17T00:04:55.297Z,90.91
2022-10-17T00:05:55.275Z,90.40
2022-10-17T00:06:55.266Z,89.99
2022-10-17T00:07:55.246Z,89.39
2022-10-17T00:08:55.236Z,89.18
2022-10-17T00:09:55.226Z,89.18
2022-10-17T00:10:55.234Z,89.28
2022-10-17T00:11:55.197Z,90.30
2022-10-17T00:12:55.203Z,91.20
2022-10-17T00:13:55.186Z,91.41
2022-10-17T00:14:55.170Z,90.95
2022-10-17T00:15:55.180Z,90.03
2022-10-17T00:16:55.162Z,89.83
2022-10-17T00:17:55.140Z,89.83
2022-10-17T00:18:55.210Z,89.73
2022-10-17T00:19:55.131Z,89.94
2022-10-17T00:20:55.120Z,90.24
2022-10-17T00:21:55.112Z,90.03
2022-10-17T00:22:55.093Z,89.83
2022-10-17T00:23:55.079Z,89.43
2022-10-17T00:24:55.075Z,89.23
2022-10-17T00:25:55.053Z,88.92
2022-10-17T00:26:55.071Z,89.02
2022-10-17T00:27:55.040Z,89.43
2022-10-17T00:28:55.111Z,89.94
2022-10-17T00:29:55.014Z,90.44
2022-10-17T00:30:55.006Z,90.03
2022-10-17T00:31:55.008Z,89.83
2022-10-17T00:32:54.994Z,90.14
2022-10-17T00:33:54.976Z,91.05
2022-10-17T00:34:54.967Z,91.15
2022-10-17T00:35:54.947Z,91.05
2022-10-17T00:36:54.967Z,90.75
2022-10-17T00:37:54.927Z,90.95
2022-10-17T00:38:54.928Z,90.95
2022-10-17T00:39:54.912Z,91.46
2022-10-17T00:41:54.949Z,93.07
2022-10-17T00:42:54.889Z,93.38
2022-10-17T00:43:54.884Z,93.48
2022-10-17T00:44:54.860Z,93.58
2022-10-17T00:45:54.851Z,93.78
2022-10-17T00:46:54.860Z,93.78
2022-10-17T00:47:54.828Z,93.88
2022-10-17T00:48:54.822Z,93.88
2022-10-17T00:49:54.823Z,93.99
2022-10-17T00:50:54.813Z,94.09
2022-10-17T00:51:54.803Z,94.09
2022-10-17T00:52:54.782Z,94.19
2022-10-17T00:53:54.773Z,94.29
2022-10-17T00:54:54.764Z,94.19
2022-10-17T00:55:54.743Z,94.14
2022-10-17T00:56:54.754Z,94.14
2022-10-17T00:57:54.725Z,94.04
2022-10-17T00:58:54.775Z,93.94
2022-10-17T00:59:54.704Z,94.04
2022-10-17T01:00:54.698Z,94.04
2022-10-17T01:01:54.704Z,93.94
2022-10-17T01:02:54.695Z,93.94
2022-10-17T01:03:54.669Z,94.04
2022-10-17T01:04:54.657Z,94.04
2022-10-17T01:05:54.641Z,94.04
2022-10-17T01:06:54.668Z,94.04
2022-10-17T01:07:54.627Z,93.94
2022-10-17T01:08:54.627Z,93.84
2022-10-17T01:09:54.600Z,93.84
2022-10-17T01:10:54.592Z,93.94
2022-10-17T01:11:54.591Z,94.04
2022-10-17T01:12:54.579Z,93.94
2022-10-17T01:13:54.561Z,94.04
2022-10-17T01:14:54.552Z,94.04
2022-10-17T01:15:54.540Z,93.94
2022-10-17T01:16:54.560Z,94.04
2022-10-17T01:17:54.511Z,94.04
2022-10-17T01:18:54.512Z,94.04
2022-10-17T01:19:54.494Z,94.04
2022-10-17T01:20:54.494Z,93.94
2022-10-17T01:21:54.500Z,94.04
2022-10-17T01:22:54.465Z,94.04
2022-10-17T01:23:54.462Z,94.04
2022-10-17T01:24:54.445Z,94.04
2022-10-17T01:25:54.444Z,93.94
2022-10-17T01:26:54.446Z,93.94
2022-10-17T01:27:54.415Z,93.94
2022-10-17T01:28:54.415Z,93.94
2022-10-17T01:29:54.398Z,93.94
2022-10-17T01:30:54.387Z,93.94
2022-10-17T01:31:54.387Z,93.94
2022-10-17T01:32:54.368Z,93.94
2022-10-17T01:33:54.348Z,93.94
2022-10-17T01:34:54.349Z,93.94
2022-10-17T01:35:54.334Z,93.84
2022-10-17T01:36:54.357Z,93.94
2022-10-17T01:37:54.323Z,93.94
2022-10-17T01:38:54.307Z,93.84
2022-10-17T01:39:54.306Z,93.84
2022-10-17T01:40:54.288Z,93.84
2022-10-17T01:41:54.281Z,93.84
2022-10-17T01:42:54.267Z,93.74
2022-10-17T01:43:54.246Z,93.74
2022-10-17T01:44:54.242Z,93.74
2022-10-17T01:45:54.250Z,93.84
2022-10-17T01:46:54.274Z,93.84
2022-10-17T01:47:54.209Z,93.84
2022-10-17T01:48:54.203Z,93.84
2022-10-17T01:49:54.201Z,94.04
2022-10-17T01:50:54.215Z,93.94
2022-10-17T01:51:54.214Z,93.94
2022-10-17T01:52:54.164Z,93.94
2022-10-17T01:53:54.147Z,93.94
2022-10-17T01:54:54.147Z,93.99
2022-10-17T01:55:54.192Z,93.99
2022-10-17T01:56:54.135Z,94.09
2022-10-17T01:57:54.103Z,93.99
2022-10-17T01:58:54.097Z,93.99
2022-10-17T01:59:54.077Z,93.99
2022-10-17T02:00:54.087Z,93.99
2022-10-17T02:01:54.090Z,94.09
2022-10-17T02:02:54.057Z,94.09
2022-10-17T02:03:54.097Z,94.09
2022-10-17T02:04:54.059Z,94.09
2022-10-17T02:05:54.019Z,94.09
2022-10-17T02:06:54.031Z,94.19
2022-10-17T02:07:54.000Z,94.29
2022-10-17T02:08:53.994Z,94.29
2022-10-17T02:09:53.981Z,94.39
2022-10-17T02:10:53.971Z,94.39
2022-10-17T02:11:53.971Z,94.49
2022-10-17T02:12:53.958Z,94.59
2022-10-17T02:13:53.940Z,94.49
2022-10-17T02:14:53.933Z,94.59
2022-10-17T02:15:53.923Z,94.59
2022-10-17T02:16:53.931Z,94.70
2022-10-17T02:17:53.894Z,94.70
2022-10-17T02:18:53.889Z,94.70
2022-10-17T02:19:53.895Z,94.70
2022-10-17T02:20:53.875Z,94.70
2022-10-17T02:21:53.871Z,94.70
2022-10-17T02:22:53.846Z,94.70
2022-10-17T02:23:53.838Z,94.70
2022-10-17T02:24:53.826Z,94.70
2022-10-17T02:25:53.821Z,94.70
2022-10-17T02:26:53.825Z,94.70
2022-10-17T02:27:53.807Z,94.70
2022-10-17T02:28:53.840Z,94.74
2022-10-17T02:29:53.769Z,94.79
2022-10-17T02:30:53.767Z,94.84
2022-10-17T02:31:53.769Z,94.79
2022-10-17T02:32:53.748Z,95.04
2022-10-17T02:33:53.729Z,95.00
2022-10-17T02:34:53.728Z,95.00
2022-10-17T02:35:53.711Z,94.90
2022-10-17T02:36:53.720Z,94.90
2022-10-17T02:37:53.694Z,94.94
2022-10-17T02:38:53.682Z,95.04
2022-10-17T02:39:53.692Z,95.00
2022-10-17T02:40:53.703Z,95.14
2022-10-17T02:41:53.663Z,95.20
2022-10-17T02:42:53.664Z,95.30
2022-10-17T02:43:54.391Z,95.40
2022-10-17T02:44:53.624Z,95.40
2022-10-17T02:45:53.603Z,95.30
2022-10-17T02:46:53.617Z,95.30
2022-10-17T02:47:53.584Z,95.30
2022-10-17T02:48:53.575Z,95.30
2022-10-17T02:49:53.575Z,95.30
2022-10-17T02:50:53.557Z,95.20
2022-10-17T02:51:53.557Z,95.20
2022-10-17T02:52:53.545Z,95.10
2022-10-17T02:53:53.517Z,95.10
2022-10-17T02:54:53.516Z,95.10
2022-10-17T02:55:53.503Z,95.10
2022-10-17T02:56:53.509Z,95.10
2022-10-17T02:57:53.510Z,95.10
2022-10-17T02:58:53.479Z,95.10
2022-10-17T02:59:53.463Z,95.10
2022-10-17T03:00:53.504Z,95.10
2022-10-17T03:01:53.451Z,95.10
2022-10-17T03:02:53.431Z,95.00
2022-10-17T03:03:53.421Z,95.00
2022-10-17T03:04:53.412Z,95.00
2022-10-17T03:05:53.391Z,94.90
2022-10-17T03:06:53.413Z,94.90
2022-10-17T03:07:53.382Z,94.79
2022-10-17T03:08:53.373Z,94.79
2022-10-17T03:09:53.354Z,94.70
2022-10-17T03:10:53.363Z,94.70
2022-10-17T03:11:53.355Z,94.70
2022-10-17T03:12:53.344Z,94.59
2022-10-17T03:13:53.314Z,94.49
2022-10-17T03:14:53.305Z,94.49
2022-10-17T03:15:53.292Z,94.39
2022-10-17T03:16:53.305Z,94.29
2022-10-17T03:17:53.277Z,94.29
2022-10-17T03:18:53.269Z,94.29
2022-10-17T03:19:53.257Z,94.19
2022-10-17T03:20:53.246Z,94.19
2022-10-17T03:21:53.248Z,94.19
2022-10-17T03:22:53.218Z,94.19
2022-10-17T03:23:53.208Z,94.29
2022-10-17T03:24:53.207Z,94.19
2022-10-17T03:25:53.219Z,94.19
2022-10-17T03:26:53.212Z,94.19
2022-10-17T03:27:53.167Z,94.19
2022-10-17T03:28:54.493Z,94.19
2022-10-17T03:29:53.162Z,94.19
2022-10-17T03:30:53.141Z,94.09
2022-10-17T03:31:53.149Z,94.19
2022-10-17T03:32:53.111Z,94.09
2022-10-17T03:33:53.109Z,94.09
2022-10-17T03:34:53.092Z,94.09
2022-10-17T03:35:53.103Z,93.99
2022-10-17T03:36:53.094Z,93.99
2022-10-17T03:37:53.070Z,93.88
2022-10-17T03:38:53.055Z,93.88
2022-10-17T03:39:53.044Z,93.88
2022-10-17T03:40:53.033Z,93.78
2022-10-17T03:41:53.044Z,93.78
2022-10-17T03:42:53.015Z,93.78
2022-10-17T03:43:53.005Z,93.68
2022-10-17T03:44:52.995Z,93.68
2022-10-17T03:45:52.987Z,93.68
2022-10-17T03:46:52.987Z,93.58
2022-10-17T03:47:52.967Z,93.58
2022-10-17T03:48:52.947Z,93.58
2022-10-17T03:49:52.941Z,93.58
2022-10-17T03:50:52.928Z,93.68
2022-10-17T03:51:52.938Z,93.78
2022-10-17T03:52:52.908Z,93.78
2022-10-17T03:53:52.910Z,93.88
2022-10-17T03:54:52.887Z,94.03
2022-10-17T03:55:52.880Z,94.13
2022-10-17T03:56:52.940Z,94.13
2022-10-17T03:57:52.861Z,94.23
2022-10-17T03:58:52.842Z,94.23
2022-10-17T03:59:52.861Z,94.23
2022-10-17T04:00:52.859Z,94.23
2022-10-17T04:01:52.851Z,94.34
2022-10-17T04:02:52.804Z,94.34
2022-10-17T04:03:52.800Z,94.34
2022-10-17T04:04:52.784Z,94.34
2022-10-17T04:05:52.785Z,94.34
2022-10-17T04:06:52.783Z,94.34
2022-10-17T04:07:52.761Z,94.34
2022-10-17T04:08:52.744Z,94.34
2022-10-17T04:09:52.735Z,94.34
2022-10-17T04:10:52.717Z,94.34
2022-10-17T04:11:52.732Z,94.43
2022-10-17T04:12:52.699Z,94.43
2022-10-17T04:13:52.687Z,94.34
2022-10-17T04:14:52.683Z,94.34
2022-10-17T04:15:52.676Z,94.34
2022-10-17T04:16:52.696Z,94.23
2022-10-17T04:17:52.722Z,94.23
2022-10-17T04:18:52.640Z,94.13
2022-10-17T04:19:52.628Z,94.13
2022-10-17T04:20:52.618Z,94.03
2022-10-17T04:21:52.628Z,93.93
2022-10-17T04:22:52.609Z,93.83
2022-10-17T04:23:52.605Z,93.68
2022-10-17T04:24:52.593Z,93.48
2022-10-17T04:25:52.574Z,93.38
2022-10-17T04:26:52.572Z,93.27
2022-10-17T04:27:52.550Z,93.27
2022-10-17T04:28:52.532Z,93.18
2022-10-17T04:29:52.533Z,93.18
2022-10-17T04:30:54.175Z,93.07
2022-10-17T04:31:52.523Z,92.97
2022-10-17T04:32:52.493Z,92.97
2022-10-17T04:33:52.484Z,92.97
2022-10-17T04:34:52.466Z,92.87
2022-10-17T04:35:52.464Z,92.87
2022-10-17T04:36:52.469Z,92.77
2022-10-17T04:37:52.445Z,92.77
2022-10-17T04:38:52.426Z,92.77
2022-10-17T04:39:52.436Z,92.67
2022-10-17T04:40:52.406Z,92.67
2022-10-17T04:41:52.429Z,92.67
2022-10-17T04:42:52.388Z,92.77
2022-10-17T04:43:52.387Z,92.77
2022-10-17T04:44:52.378Z,92.77
2022-10-17T04:45:52.358Z,92.77
2022-10-17T04:46:52.368Z,92.77
2022-10-17T04:47:52.348Z,92.77
2022-10-17T04:48:52.339Z,92.87
2022-10-17T04:49:52.328Z,92.87
2022-10-17T04:50:52.303Z,92.87
2022-10-17T04:51:52.329Z,92.87
2022-10-17T04:52:52.281Z,92.91
2022-10-17T04:53:52.281Z,92.91
2022-10-17T04:54:52.262Z,92.91
2022-10-17T04:55:52.261Z,92.91
2022-10-17T04:56:52.259Z,92.91
2022-10-17T04:57:52.243Z,92.91
2022-10-17T04:58:52.222Z,92.82
2022-10-17T04:59:52.213Z,92.82
2022-10-17T05:00:52.225Z,92.82
2022-10-17T05:01:52.216Z,92.82
2022-10-17T05:02:52.174Z,92.82
2022-10-17T05:03:52.174Z,92.71
2022-10-17T05:04:52.167Z,92.67
2022-10-17T05:05:52.152Z,92.57
2022-10-17T05:06:52.157Z,92.57
2022-10-17T05:07:52.137Z,92.47
2022-10-17T05:08:52.116Z,92.47
2022-10-17T05:09:52.114Z,92.36
2022-10-17T05:10:52.147Z,92.36
2022-10-17T05:11:52.107Z,92.36
2022-10-17T05:12:52.079Z,92.36
2022-10-17T05:13:52.070Z,92.36
2022-10-17T05:14:52.058Z,92.26
2022-10-17T05:15:52.048Z,92.26
2022-10-17T05:16:52.052Z,92.26
2022-10-17T05:17:52.038Z,92.26
2022-10-17T05:18:53.080Z,92.16
2022-10-17T05:19:52.020Z,92.16
2022-10-17T05:20:51.991Z,92.16
2022-10-17T05:21:52.001Z,92.06
2022-10-17T05:22:51.971Z,91.96
2022-10-17T05:23:51.979Z,91.96
2022-10-17T05:24:51.955Z,91.96
2022-10-17T05:25:52.069Z,91.86
2022-10-17T05:26:51.893Z,91.86
2022-10-17T05:27:51.924Z,91.86
2022-10-17T05:28:51.936Z,91.75
2022-10-17T05:29:51.904Z,91.75
2022-10-17T05:30:51.883Z,91.75
2022-10-17T05:31:52.014Z,91.75
2022-10-17T05:32:51.875Z,91.66
2022-10-17T05:33:51.825Z,91.66
2022-10-17T05:34:51.819Z,91.66
2022-10-17T05:35:51.795Z,91.66
2022-10-17T05:36:51.768Z,91.66
2022-10-17T05:37:51.785Z,91.66
2022-10-17T05:38:51.757Z,91.55
2022-10-17T05:39:51.814Z,91.55
2022-10-17T05:40:51.736Z,91.55
2022-10-17T05:41:51.728Z,91.55
2022-10-17T05:42:51.729Z,91.55
2022-10-17T05:43:51.719Z,91.46
2022-10-17T05:44:51.690Z,91.46
2022-10-17T05:45:51.688Z,91.46
2022-10-17T05:46:51.670Z,91.46
2022-10-17T05:47:51.682Z,91.35
2022-10-17T05:48:51.643Z,91.35
2022-10-17T05:49:52.629Z,91.35
2022-10-17T05:50:51.630Z,91.35
2022-10-17T05:51:51.621Z,91.35
2022-10-17T05:52:51.641Z,91.35
2022-10-17T05:53:51.600Z,91.25
2022-10-17T05:54:51.586Z,91.15
2022-10-17T05:55:51.580Z,91.15
2022-10-17T05:56:51.564Z,91.15
2022-10-17T05:57:51.583Z,91.15
2022-10-17T05:58:55.073Z,91.05
2022-10-17T05:59:51.537Z,90.95
2022-10-17T06:00:51.527Z,90.95
2022-10-17T06:01:51.570Z,90.95
2022-10-17T06:02:51.525Z,90.95
2022-10-17T06:03:51.497Z,90.95
2022-10-17T06:04:51.534Z,90.95
2022-10-17T06:05:51.477Z,90.95
2022-10-17T06:06:51.467Z,90.95
2022-10-17T06:07:51.478Z,90.95
2022-10-17T06:08:51.438Z,90.95
2022-10-17T06:09:51.438Z,90.84
2022-10-17T06:10:51.419Z,90.84
2022-10-17T06:11:51.409Z,90.84
2022-10-17T06:12:51.420Z,90.84
2022-10-17T06:13:51.399Z,90.75
2022-10-17T06:14:51.371Z,90.75
2022-10-17T06:15:51.378Z,90.75
2022-10-17T06:16:51.361Z,90.75
2022-10-17T06:17:51.374Z,90.75
2022-10-17T06:18:51.342Z,90.64
2022-10-17T06:19:51.341Z,90.64
2022-10-17T06:20:51.314Z,90.64
2022-10-17T06:21:51.312Z,90.54
2022-10-17T06:22:51.313Z,90.54
2022-10-17T06:23:51.291Z,90.54
2022-10-17T06:24:51.274Z,90.54
2022-10-17T06:25:51.273Z,90.54
2022-10-17T06:26:51.258Z,90.54
2022-10-17T06:27:51.264Z,90.44
2022-10-17T06:28:51.303Z,90.44
2022-10-17T06:29:51.227Z,90.34
2022-10-17T06:30:51.218Z,90.34
2022-10-17T06:31:51.198Z,90.24
2022-10-17T06:32:51.217Z,90.24
2022-10-17T06:33:51.199Z,90.24
2022-10-17T06:34:51.179Z,90.20
2022-10-17T06:35:51.165Z,90.14
2022-10-17T06:36:51.170Z,90.24
2022-10-17T06:37:51.160Z,90.14
2022-10-17T06:38:51.148Z,90.14
2022-10-17T06:39:51.119Z,90.03
2022-10-17T06:40:51.129Z,89.99
2022-10-17T06:41:51.100Z,89.99
2022-10-17T06:42:51.113Z,89.99
2022-10-17T06:43:51.080Z,90.09
2022-10-17T06:44:51.071Z,89.99
2022-10-17T06:45:51.088Z,89.99
2022-10-17T06:46:51.051Z,90.09
2022-10-17T06:47:51.073Z,90.09
2022-10-17T06:48:51.036Z,90.09
2022-10-17T06:49:51.014Z,90.09
2022-10-17T06:50:51.012Z,90.20
2022-10-17T06:51:50.995Z,90.09
2022-10-17T06:52:51.007Z,89.99
2022-10-17T06:53:50.974Z,89.99
2022-10-17T06:54:51.017Z,89.99
2022-10-17T06:55:50.954Z,89.99
2022-10-17T06:56:50.989Z,89.99
2022-10-17T06:57:50.948Z,89.99
2022-10-17T06:58:50.928Z,89.89
2022-10-17T06:59:50.906Z,89.89
2022-10-17T07:00:50.997Z,89.89
2022-10-17T07:01:50.887Z,89.99
2022-10-17T07:02:50.897Z,89.79
2022-10-17T07:03:50.870Z,89.89
2022-10-17T07:04:50.872Z,89.89
2022-10-17T07:05:50.856Z,89.85
2022-10-17T07:06:50.918Z,89.65
2022-10-17T07:07:51.822Z,89.65
2022-10-17T07:08:50.821Z,89.65
2022-10-17T07:09:50.811Z,89.54
2022-10-17T07:10:50.808Z,89.54
2022-10-17T07:11:50.792Z,89.34
2022-10-17T07:12:50.801Z,89.24
2022-10-17T07:13:50.762Z,89.24
2022-10-17T07:14:50.760Z,89.24
2022-10-17T07:15:50.781Z,89.20
2022-10-17T07:16:50.744Z,89.00
2022-10-17T07:17:50.755Z,88.39
2022-10-17T07:18:50.732Z,88.09
2022-10-17T07:19:50.707Z,87.79
2022-10-17T07:20:50.695Z,87.88
2022-10-17T07:21:50.675Z,87.88
2022-10-17T07:22:50.694Z,87.95
2022-10-17T07:23:50.671Z,87.95
2022-10-17T07:25:50.637Z,87.24
2022-10-17T07:26:50.654Z,86.73
2022-10-17T07:27:50.647Z,86.73
2022-10-17T07:28:50.668Z,86.63
2022-10-17T07:29:50.598Z,86.59
2022-10-17T07:30:53.597Z,86.59
2022-10-17T07:31:50.568Z,86.08
2022-10-17T07:32:50.581Z,85.99
2022-10-17T07:33:50.596Z,85.68
2022-10-17T07:34:50.541Z,85.28
2022-10-17T07:35:50.539Z,85.38
2022-10-17T07:36:50.528Z,85.68
2022-10-17T07:37:50.531Z,85.88
2022-10-17T07:38:50.532Z,85.78
2022-10-17T07:39:50.482Z,85.88
2022-10-17T07:40:50.484Z,85.28
2022-10-17T07:41:50.463Z,84.97
2022-10-17T07:42:50.492Z,84.87
2022-10-17T07:43:50.452Z,85.08
2022-10-17T07:44:50.440Z,85.28
2022-10-17T07:45:50.423Z,85.17
2022-10-17T07:46:50.441Z,85.17
2022-10-17T07:47:50.414Z,85.28
2022-10-17T07:48:50.398Z,85.58
2022-10-17T07:49:50.375Z,85.58
2022-10-17T07:50:50.372Z,85.78
2022-10-17T07:51:50.358Z,85.58
2022-10-17T07:52:50.388Z,85.68
2022-10-17T07:53:50.340Z,85.58
2022-10-17T07:54:50.329Z,85.68
2022-10-17T07:55:50.307Z,85.48
2022-10-17T07:56:50.384Z,85.58
2022-10-17T07:57:50.309Z,85.74
2022-10-17T07:58:50.327Z,85.58
2022-10-17T07:59:50.273Z,85.34
2022-10-17T08:00:50.381Z,85.44
2022-10-17T08:01:50.252Z,85.44
2022-10-17T08:02:50.259Z,85.54
2022-10-17T08:03:50.221Z,85.54
2022-10-17T08:04:50.221Z,85.34
2022-10-17T08:05:50.213Z,85.38
2022-10-17T08:06:53.420Z,85.17
2022-10-17T08:07:51.212Z,85.48
2022-10-17T08:08:50.182Z,85.68
2022-10-17T08:09:50.163Z,85.78
2022-10-17T08:10:50.153Z,85.38
2022-10-17T08:11:50.141Z,85.38
2022-10-17T08:12:50.135Z,85.58
2022-10-17T08:13:50.134Z,85.88
2022-10-17T08:14:50.115Z,85.68
2022-10-17T08:15:50.097Z,85.88
2022-10-17T08:16:50.093Z,85.88
2022-10-17T08:17:50.075Z,85.84
2022-10-17T08:18:50.086Z,85.74
2022-10-17T08:19:50.068Z,85.64
2022-10-17T08:20:50.055Z,85.84
2022-10-17T08:21:50.060Z,85.74
2022-10-17T08:22:50.036Z,85.94
2022-10-17T08:23:50.028Z,85.74
2022-10-17T08:24:50.006Z,85.74
2022-10-17T08:25:49.989Z,85.84
2022-10-17T08:26:51.870Z,85.84
2022-10-17T08:27:49.970Z,85.84
2022-10-17T08:28:50.053Z,85.64
2022-10-17T08:29:49.942Z,85.54
2022-10-17T08:30:49.942Z,85.64
2022-10-17T08:31:52.402Z,85.74
2022-10-17T08:32:51.048Z,85.70
2022-10-17T08:33:49.929Z,85.40
2022-10-17T08:34:49.904Z,85.30
2022-10-17T08:35:49.882Z,84.69
2022-10-17T08:36:49.880Z,84.79
2022-10-17T08:37:49.873Z,84.79
2022-10-17T08:38:52.809Z,84.49
2022-10-17T08:39:49.843Z,84.69
2022-10-17T08:40:49.834Z,84.59
2022-10-17T08:41:49.825Z,84.59
2022-10-17T08:42:49.817Z,84.65
2022-10-17T08:43:49.816Z,84.35
2022-10-17T08:44:49.797Z,84.25
2022-10-17T08:45:49.777Z,84.35
2022-10-17T08:46:49.795Z,84.45
2022-10-17T08:47:49.774Z,84.25
2022-10-17T08:48:49.771Z,83.84
2022-10-17T08:49:49.749Z,84.25
2022-10-17T08:50:49.749Z,84.15
2022-10-17T08:51:49.712Z,84.15
2022-10-17T08:52:49.709Z,83.80
2022-10-17T08:53:49.734Z,83.91
2022-10-17T08:54:49.688Z,83.91
2022-10-17T08:55:49.677Z,83.30
2022-10-17T08:56:49.847Z,83.70
2022-10-17T08:57:49.654Z,83.80
2022-10-17T08:58:49.669Z,83.60
2022-10-17T08:59:49.631Z,83.91
2022-10-17T09:00:49.638Z,84.01
2022-10-17T09:01:49.603Z,83.97
2022-10-17T09:02:49.690Z,83.56
2022-10-17T09:03:49.607Z,83.66
2022-10-17T09:04:49.585Z,83.56
2022-10-17T09:05:49.564Z,82.86
2022-10-17T09:06:49.563Z,82.62
2022-10-17T09:07:49.545Z,82.51
2022-10-17T09:08:49.556Z,81.81
2022-10-17T09:09:49.529Z,81.91
2022-10-17T09:10:49.523Z,81.77
2022-10-17T09:11:49.503Z,81.07
2022-10-17T09:12:49.510Z,81.17
2022-10-17T09:13:49.497Z,81.17
2022-10-17T09:14:49.488Z,81.07
2022-10-17T09:15:49.465Z,80.52
2022-10-17T09:16:49.458Z,80.43
2022-10-17T09:17:49.447Z,79.72
2022-10-17T09:18:49.449Z,79.72
2022-10-17T09:19:49.418Z,79.72
2022-10-17T09:20:49.413Z,79.28
2022-10-17T09:21:49.392Z,79.28
2022-10-17T09:22:49.410Z,79.18
2022-10-17T09:23:49.411Z,79.18
2022-10-17T09:24:49.371Z,78.88
2022-10-17T09:25:49.351Z,78.78
2022-10-17T09:26:49.355Z,78.64
2022-10-17T09:27:49.332Z,78.84
2022-10-17T09:28:49.378Z,78.84
2022-10-17T09:29:49.314Z,78.23
2022-10-17T09:30:49.304Z,78.44
2022-10-17T09:31:49.315Z,78.03
2022-10-17T09:32:49.298Z,78.50
2022-10-17T09:33:54.322Z,78.00
2022-10-17T09:34:50.266Z,78.20
2022-10-17T09:35:49.245Z,77.90
2022-10-17T09:36:49.244Z,77.80
2022-10-17T09:37:49.235Z,77.29
2022-10-17T09:38:49.237Z,77.29
2022-10-17T09:39:49.212Z,77.26
2022-10-17T09:40:50.937Z,76.86
2022-10-17T09:41:49.188Z,76.76
2022-10-17T09:42:49.189Z,76.76
2022-10-17T09:43:49.199Z,76.56
2022-10-17T09:44:49.159Z,76.32
2022-10-17T09:45:49.141Z,76.42
2022-10-17T09:46:49.131Z,76.12
2022-10-17T09:48:52.598Z,75.31
2022-10-17T09:49:49.114Z,74.98
2022-10-17T09:50:57.884Z,75.08
2022-10-17T09:51:50.084Z,74.77
2022-10-17T09:52:49.081Z,74.77
2022-10-17T09:53:49.074Z,74.18
2022-10-17T09:54:49.056Z,74.27
2022-10-17T09:55:49.035Z,74.54
2022-10-17T09:56:49.035Z,73.84
2022-10-17T09:57:49.016Z,73.74
2022-10-17T09:58:49.035Z,73.74
2022-10-17T09:59:48.997Z,73.94
2022-10-17T10:00:49.192Z,73.64
2022-10-17T10:01:48.977Z,73.24
2022-10-17T10:02:48.968Z,73.24
2022-10-17T10:03:48.968Z,73.13
2022-10-17T10:05:03.652Z,72.53
2022-10-17T10:05:49.931Z,72.90
2022-10-17T10:06:48.929Z,72.60
2022-10-17T10:07:48.918Z,72.40
2022-10-17T10:08:48.928Z,72.40
2022-10-17T10:09:48.906Z,72.20
2022-10-17T10:10:48.887Z,72.50
2022-10-17T10:11:48.880Z,72.90
2022-10-17T10:12:48.954Z,72.77
2022-10-17T10:13:48.873Z,72.66
2022-10-17T10:14:52.175Z,71.96
2022-10-17T10:15:48.864Z,71.73
2022-10-17T10:16:48.823Z,71.12
2022-10-17T10:17:48.803Z,70.69
2022-10-17T10:18:50.853Z,70.29
2022-10-17T10:19:48.783Z,69.26
2022-10-17T10:20:48.777Z,68.73
2022-10-17T10:21:48.765Z,68.32
2022-10-17T10:22:48.756Z,68.09
2022-10-17T10:23:48.756Z,67.89
2022-10-17T10:24:48.756Z,67.69
2022-10-17T10:25:48.720Z,68.09
2022-10-17T10:26:48.717Z,68.29
2022-10-17T10:27:48.719Z,66.96
2022-10-17T10:28:48.748Z,67.06
2022-10-17T10:29:48.681Z,67.03
2022-10-17T10:30:48.687Z,67.03
2022-10-17T10:31:48.658Z,65.60
2022-10-17T10:32:48.655Z,65.10
2022-10-17T10:33:50.936Z,65.07
2022-10-17T10:34:48.635Z,64.37
2022-10-17T10:35:48.611Z,63.54
2022-10-17T10:36:48.627Z,62.84
2022-10-17T10:37:48.596Z,63.34
2022-10-17T10:38:48.611Z,63.54
2022-10-17T10:39:48.575Z,62.45
2022-10-17T10:40:48.563Z,62.34
2022-10-17T10:41:48.556Z,62.41
2022-10-17T10:42:48.552Z,61.65
2022-10-17T10:43:48.555Z,61.85
2022-10-17T10:44:48.524Z,61.85
2022-10-17T10:45:49.224Z,60.95
2022-10-17T10:46:48.497Z,60.15
2022-10-17T10:47:48.497Z,60.35
2022-10-17T10:48:48.507Z,59.72
2022-10-17T10:49:48.477Z,59.00
2022-10-17T10:50:48.459Z,58.20
2022-10-17T10:51:48.459Z,58.89
2022-10-17T10:52:48.443Z,58.80
2022-10-17T10:53:48.449Z,58.37
2022-10-17T10:54:48.424Z,57.67
2022-10-17T10:55:48.412Z,57.75
2022-10-17T10:56:51.140Z,57.35
2022-10-17T10:57:49.390Z,57.15
2022-10-17T10:58:48.393Z,56.65
2022-10-17T10:59:48.375Z,55.95
2022-10-17T11:00:48.387Z,56.05
2022-10-17T11:01:48.355Z,56.48
2022-10-17T11:02:48.343Z,56.65
2022-10-17T11:03:48.350Z,55.98
2022-10-17T11:04:48.316Z,56.15
2022-10-17T11:05:48.305Z,56.45
2022-10-17T11:06:48.295Z,55.65
2022-10-17T11:07:48.287Z,55.65
2022-10-17T11:08:48.287Z,54.96
2022-10-17T11:09:48.266Z,55.55
2022-10-17T11:10:48.247Z,55.88
2022-10-17T11:11:48.247Z,55.55
2022-10-17T11:12:48.232Z,55.13
2022-10-17T11:13:49.638Z,54.03
2022-10-17T11:14:48.211Z,54.43
2022-10-17T11:15:48.202Z,54.24
2022-10-17T11:16:48.190Z,54.41
2022-10-17T11:17:48.188Z,53.61
2022-10-17T11:18:48.182Z,53.61
2022-10-17T11:19:48.161Z,53.61
2022-10-17T11:20:48.143Z,53.69
2022-10-17T11:21:48.155Z,52.69
2022-10-17T11:22:48.143Z,52.96
2022-10-17T11:23:48.145Z,52.67
2022-10-17T11:24:48.115Z,52.96
2022-10-17T11:25:48.104Z,52.69
2022-10-17T11:26:48.086Z,53.09
2022-10-17T11:27:48.083Z,53.19
2022-10-17T11:28:48.120Z,53.61
2022-10-17T11:29:48.064Z,54.41
2022-10-17T11:30:48.053Z,54.71
2022-10-17T11:31:48.047Z,55.20
2022-10-17T11:32:48.028Z,55.43
2022-10-17T11:33:48.039Z,55.55
2022-10-17T11:34:48.008Z,55.65
2022-10-17T11:35:48.000Z,55.63
2022-10-17T11:36:47.990Z,55.40
2022-10-17T11:37:49.060Z,54.80
2022-10-17T11:38:47.969Z,54.93
2022-10-17T11:39:47.974Z,55.68
2022-10-17T11:40:47.945Z,56.30
2022-10-17T11:41:47.945Z,57.23
2022-10-17T11:42:47.948Z,57.13
2022-10-17T11:43:47.929Z,57.65
2022-10-17T11:44:47.911Z,57.76
2022-10-17T11:45:47.903Z,58.06
2022-10-17T11:46:47.885Z,57.86
2022-10-17T11:47:47.903Z,57.86
2022-10-17T11:48:47.866Z,57.82
2022-10-17T11:49:50.820Z,57.10
2022-10-17T11:52:04.120Z,56.65
2022-10-17T11:52:56.373Z,55.73
2022-10-17T11:53:48.816Z,55.60
2022-10-17T11:54:47.809Z,55.08
2022-10-17T11:55:48.000Z,54.08
2022-10-17T11:56:47.791Z,54.18
2022-10-17T11:57:47.775Z,54.16
2022-10-17T11:58:47.789Z,53.44
2022-10-17T11:59:47.780Z,53.51
2022-10-17T12:00:49.055Z,53.31
2022-10-17T12:01:47.732Z,52.72
2022-10-17T12:02:47.714Z,52.51
2022-10-17T12:03:47.731Z,52.42
2022-10-17T12:04:49.619Z,52.31
2022-10-17T12:05:47.696Z,52.29
2022-10-17T12:06:47.674Z,51.70
2022-10-17T12:07:47.692Z,51.00
2022-10-17T12:08:47.684Z,51.10
2022-10-17T12:09:47.656Z,51.79
2022-10-17T12:10:47.646Z,51.92
2022-10-17T12:11:47.636Z,52.22
2022-10-17T12:12:47.615Z,51.72
2022-10-17T12:13:47.628Z,52.22
2022-10-17T12:14:47.599Z,51.92
2022-10-17T12:15:47.588Z,52.02
2022-10-17T12:16:47.579Z,52.31
2022-10-17T12:17:47.570Z,52.12
2022-10-17T12:18:47.580Z,52.74
2022-10-17T12:19:47.548Z,53.23
2022-10-17T12:20:47.540Z,52.84
2022-10-17T12:21:47.529Z,52.94
2022-10-17T12:22:47.514Z,52.94
2022-10-17T12:23:47.522Z,53.53
2022-10-17T12:24:47.493Z,52.84
2022-10-17T12:25:47.487Z,52.96
2022-10-17T12:26:47.474Z,53.56
2022-10-17T12:27:47.466Z,53.66
2022-10-17T12:28:47.523Z,54.08
2022-10-17T12:29:47.443Z,54.38
2022-10-17T12:30:47.437Z,54.28
2022-10-17T12:31:47.571Z,54.31
2022-10-17T12:33:04.236Z,54.21
2022-10-17T12:33:48.418Z,55.23
2022-10-17T12:34:47.390Z,55.33
2022-10-17T12:35:47.386Z,55.33
2022-10-17T12:36:47.384Z,55.82
2022-10-17T12:37:47.361Z,55.73
2022-10-17T12:38:49.928Z,55.76
2022-10-17T12:39:47.347Z,55.76
2022-10-17T12:40:49.009Z,55.76
2022-10-17T12:41:47.318Z,56.05
2022-10-17T12:42:47.303Z,56.25
2022-10-17T12:43:47.332Z,55.76
2022-10-17T12:44:50.415Z,56.05
2022-10-17T12:45:47.282Z,55.95
2022-10-17T12:46:47.265Z,55.95
2022-10-17T12:47:47.260Z,56.25
2022-10-17T12:48:47.255Z,55.76
2022-10-17T12:49:47.237Z,56.15
2022-10-17T12:50:47.225Z,55.63
2022-10-17T12:51:47.216Z,55.33
2022-10-17T12:52:47.239Z,55.43
2022-10-17T12:53:47.229Z,55.30
2022-10-17T12:54:47.951Z,55.13
2022-10-17T12:55:48.168Z,55.43
2022-10-17T12:56:47.167Z,55.33